createdAt,value
2023-05-05T00:04:50.447Z,1.00
2023-05-05T00:09:57.857Z,1.00
2023-05-05T00:15:03.650Z,1.00
2023-05-05T00:20:10.702Z,1.00
2023-05-05T00:25:16.357Z,1.00
2023-05-05T00:30:22.311Z,1.00
2023-05-05T00:35:29.196Z,1.00
2023-05-05T00:40:35.263Z,1.00
2023-05-05T00:45:43.139Z,1.00
2023-05-05T00:50:49.785Z,1.00
2023-05-05T00:55:55.808Z,1.00
2023-05-05T01:01:02.409Z,1.00
2023-05-05T01:06:38.614Z,1.00
2023-05-05T01:11:56.788Z,1.00
2023-05-05T01:17:05.879Z,1.00
2023-05-05T01:22:13.669Z,1.00
2023-05-05T01:27:38.737Z,1.00
2023-05-05T01:32:50.681Z,1.00
2023-05-05T01:38:07.376Z,1.00
2023-05-05T01:43:13.536Z,1.00
2023-05-05T01:48:20.436Z,1.00
2023-05-05T01:53:28.112Z,1.00
2023-05-05T01:58:34.390Z,1.00
2023-05-05T02:03:41.487Z,1.00
2023-05-05T02:08:48.729Z,1.00
2023-05-05T02:13:55.411Z,1.00
2023-05-05T02:19:05.176Z,1.00
2023-05-05T02:24:11.562Z,1.00
2023-05-05T02:29:24.672Z,1.00
2023-05-05T02:34:33.115Z,1.00
2023-05-05T02:39:44.153Z,1.00
2023-05-05T02:44:56.685Z,1.00
2023-05-05T02:50:02.482Z,1.00
2023-05-05T02:55:09.899Z,1.00
2023-05-05T03:00:28.257Z,1.00
2023-05-05T03:05:41.814Z,1.00
2023-05-05T03:10:54.340Z,1.00
2023-05-05T03:16:02.769Z,1.00
2023-05-05T03:21:09.098Z,1.00
2023-05-05T03:26:19.425Z,1.00
2023-05-05T03:31:25.681Z,1.00
2023-05-05T03:36:32.245Z,1.00
2023-05-05T03:41:38.367Z,1.00
2023-05-05T03:46:44.087Z,1.00
2023-05-05T03:51:50.655Z,1.00
2023-05-05T03:56:56.495Z,1.00
2023-05-05T04:02:02.434Z,1.00
2023-05-05T04:07:08.715Z,1.00
2023-05-05T04:12:15.918Z,1.00
2023-05-05T04:17:21.972Z,1.00
2023-05-05T04:22:28.862Z,1.00
2023-05-05T04:27:34.480Z,1.00
2023-05-05T04:32:40.750Z,1.00
2023-05-05T04:37:46.473Z,1.00
2023-05-05T04:42:53.086Z,1.00
2023-05-05T04:47:58.767Z,1.00
2023-05-05T04:53:04.407Z,1.00
2023-05-05T04:58:10.054Z,1.00
2023-05-05T05:03:17.091Z,1.00
2023-05-05T05:08:23.822Z,1.00
2023-05-05T05:13:31.157Z,1.00
2023-05-05T05:18:36.633Z,1.00
2023-05-05T05:23:42.274Z,1.00
2023-05-05T05:28:48.019Z,1.00
2023-05-05T05:33:56.894Z,1.00
2023-05-05T05:39:03.424Z,1.00
2023-05-05T05:44:09.359Z,1.00
2023-05-05T05:49:17.031Z,99.90
2023-05-05T05:54:22.744Z,1.00
2023-05-05T05:59:28.434Z,1.00
2023-05-05T06:04:34.209Z,99.90
2023-05-05T06:09:40.815Z,1.00
2023-05-05T06:14:46.610Z,1.00
2023-05-05T06:19:54.539Z,99.90
2023-05-05T06:25:00.250Z,99.90
2023-05-05T06:30:07.780Z,99.90
2023-05-05T06:35:13.937Z,99.90
2023-05-05T06:40:20.050Z,99.90
2023-05-05T06:45:26.049Z,99.90
2023-05-05T06:50:31.813Z,99.90
2023-05-05T06:55:38.008Z,99.90
2023-05-05T07:00:44.054Z,99.90
2023-05-05T07:05:49.901Z,99.90
2023-05-05T07:10:55.739Z,99.90
2023-05-05T07:16:02.479Z,98.30
2023-05-05T07:21:08.483Z,99.90
2023-05-05T07:26:16.161Z,99.90
2023-05-05T07:31:22.191Z,99.90
2023-05-05T07:36:28.456Z,99.90
2023-05-05T07:41:34.018Z,99.90
2023-05-05T07:46:39.688Z,99.90
2023-05-05T07:51:45.992Z,99.90
2023-05-05T07:56:51.656Z,99.90
2023-05-05T08:01:58.234Z,99.90
2023-05-05T08:07:04.021Z,99.90
2023-05-05T08:12:12.564Z,1.00
2023-05-05T08:17:18.399Z,47.00
2023-05-05T08:22:24.391Z,99.90
2023-05-05T08:27:30.314Z,23.10
2023-05-05T08:32:35.965Z,99.90
2023-05-05T08:37:41.335Z,99.90
2023-05-05T08:42:46.827Z,99.90
2023-05-05T08:47:53.684Z,99.90
2023-05-05T08:53:10.794Z,99.90
2023-05-05T08:58:17.152Z,1.00
2023-05-05T09:03:23.306Z,1.00
2023-05-05T09:08:29.936Z,99.90
2023-05-05T09:13:35.617Z,99.90
2023-05-05T09:18:42.755Z,99.90
2023-05-05T09:24:07.853Z,99.90
2023-05-05T09:29:08.592Z,99.90
2023-05-05T09:34:16.786Z,99.90
2023-05-05T09:39:22.766Z,99.90
2023-05-05T09:44:36.903Z,99.90
2023-05-05T09:49:42.812Z,99.90
2023-05-05T09:54:52.222Z,99.90
2023-05-05T10:00:07.391Z,99.90
2023-05-05T10:05:17.969Z,99.90
2023-05-05T10:10:23.896Z,99.90
2023-05-05T10:15:29.565Z,99.90
2023-05-05T10:20:40.281Z,99.90
2023-05-05T10:25:48.817Z,99.90
2023-05-05T10:30:55.215Z,99.90
2023-05-05T10:36:03.189Z,99.90
2023-05-05T10:41:11.497Z,99.90
2023-05-05T10:46:17.674Z,99.90
2023-05-05T10:51:39.844Z,99.90
2023-05-05T10:56:43.210Z,99.90
2023-05-05T11:01:50.900Z,99.90
2023-05-05T11:07:15.429Z,99.90
2023-05-05T11:12:21.639Z,99.90
2023-05-05T11:17:45.824Z,99.90
2023-05-05T11:23:09.238Z,99.90
2023-05-05T11:28:17.500Z,99.90
2023-05-05T11:33:33.445Z,99.90
2023-05-05T11:38:57.886Z,99.90
2023-05-05T11:44:15.545Z,99.90
2023-05-05T11:49:35.154Z,99.90
2023-05-05T11:54:50.067Z,99.90
2023-05-05T12:00:03.734Z,99.90
2023-05-05T12:05:10.272Z,99.90
2023-05-05T12:10:19.434Z,99.90
2023-05-05T12:15:34.174Z,99.90
2023-05-05T12:20:41.289Z,99.90
2023-05-05T12:25:46.933Z,99.90
2023-05-05T12:30:59.538Z,99.90
2023-05-05T12:36:05.586Z,99.90
2023-05-05T12:41:11.887Z,99.90
2023-05-05T12:46:18.083Z,99.90
2023-05-05T12:51:24.296Z,99.90
2023-05-05T12:56:46.395Z,99.90
2023-05-05T13:01:52.805Z,99.90
2023-05-05T13:07:13.959Z,99.90
2023-05-05T13:12:23.242Z,99.90
2023-05-05T13:17:28.838Z,99.90
2023-05-05T13:22:36.318Z,99.90
2023-05-05T13:27:41.660Z,99.90
2023-05-05T13:32:47.254Z,99.90
2023-05-05T13:37:53.270Z,99.90
2023-05-05T13:42:59.111Z,99.90
2023-05-05T13:48:06.701Z,99.90
2023-05-05T13:53:12.343Z,99.90
2023-05-05T13:58:17.816Z,99.90
2023-05-05T14:03:24.897Z,99.90
2023-05-05T14:08:30.668Z,99.90
2023-05-05T14:13:38.699Z,99.90
2023-05-05T14:18:44.263Z,99.90
2023-05-05T14:23:49.732Z,99.90
2023-05-05T14:28:55.644Z,99.90
2023-05-05T14:34:01.207Z,99.90
2023-05-05T14:39:07.093Z,99.90
2023-05-05T14:44:12.921Z,99.90
2023-05-05T14:49:18.392Z,99.90
2023-05-05T14:54:28.253Z,99.90
2023-05-05T14:59:32.841Z,99.90
2023-05-05T15:04:38.718Z,99.90
2023-05-05T15:09:44.152Z,99.90
2023-05-05T15:14:50.139Z,99.90
2023-05-05T15:19:55.773Z,99.90
2023-05-05T15:25:02.728Z,99.90
2023-05-05T15:30:08.699Z,99.90
2023-05-05T15:35:14.180Z,99.90
2023-05-05T15:40:19.885Z,99.90
2023-05-05T15:45:26.513Z,99.90
2023-05-05T15:50:32.052Z,99.90
2023-05-05T15:55:39.181Z,99.90
2023-05-05T16:00:44.646Z,99.90
2023-05-05T16:05:51.131Z,99.90
2023-05-05T16:11:04.087Z,99.90
2023-05-05T16:16:09.732Z,99.90
2023-05-05T16:21:16.611Z,99.90
2023-05-05T16:26:22.379Z,99.90
2023-05-05T16:31:29.645Z,99.90
2023-05-05T16:36:35.416Z,99.90
2023-05-05T16:41:42.372Z,99.90
2023-05-05T16:46:48.280Z,99.90
2023-05-05T16:51:54.554Z,99.90
2023-05-05T16:57:00.185Z,99.90
2023-05-05T17:02:06.446Z,99.90
2023-05-05T17:07:13.364Z,99.70
2023-05-05T17:12:19.707Z,99.90
2023-05-05T17:17:26.122Z,99.90
2023-05-05T17:22:32.176Z,99.90
2023-05-05T17:27:37.814Z,99.90
2023-05-05T17:32:44.308Z,99.90
2023-05-05T17:37:50.103Z,99.90
2023-05-05T17:42:56.338Z,99.90
2023-05-05T17:48:05.182Z,99.90
2023-05-05T17:53:11.534Z,99.90
2023-05-05T17:58:17.572Z,99.90
2023-05-05T18:03:23.477Z,99.90
2023-05-05T18:08:28.964Z,99.90
2023-05-05T18:13:35.107Z,99.90
2023-05-05T18:18:41.776Z,99.90
2023-05-05T18:23:48.119Z,99.90
2023-05-05T18:28:54.823Z,99.90
2023-05-05T18:34:01.041Z,99.90
2023-05-05T18:39:08.237Z,99.90
2023-05-05T18:44:14.026Z,99.90
2023-05-05T18:49:19.793Z,99.90
2023-05-05T18:54:26.401Z,73.60
2023-05-05T18:59:34.269Z,42.80
2023-05-05T19:04:42.410Z,99.90
2023-05-05T19:09:49.432Z,99.90
2023-05-05T19:14:57.211Z,99.90
2023-05-05T19:20:03.229Z,99.90
2023-05-05T19:25:09.978Z,99.20
2023-05-05T19:30:17.086Z,99.90
2023-05-05T19:35:26.723Z,99.90
2023-05-05T19:40:38.531Z,99.90
2023-05-05T19:45:44.175Z,99.90
2023-05-05T19:50:49.675Z,99.90
2023-05-05T19:56:00.694Z,99.90
2023-05-05T20:01:08.605Z,99.90
2023-05-05T20:06:15.159Z,99.90
2023-05-05T20:11:21.814Z,99.90
2023-05-05T20:16:28.984Z,74.50
2023-05-05T20:21:36.421Z,22.00
2023-05-05T20:26:43.249Z,99.90
2023-05-05T20:31:50.326Z,99.90
2023-05-05T20:36:58.410Z,99.90
2023-05-05T20:42:04.376Z,99.90
2023-05-05T20:47:11.136Z,99.90
2023-05-05T20:52:17.455Z,95.90
2023-05-05T20:57:23.241Z,99.90
2023-05-05T21:02:29.051Z,99.90
2023-05-05T21:07:35.227Z,99.90
2023-05-05T21:12:42.525Z,99.90
2023-05-05T21:17:49.253Z,99.90
2023-05-05T21:22:57.719Z,69.00
2023-05-05T21:28:03.947Z,99.90
2023-05-05T21:33:11.891Z,99.90
2023-05-05T21:38:17.780Z,99.90
2023-05-05T21:43:25.338Z,99.90
2023-05-05T21:48:31.720Z,99.90
2023-05-05T21:53:37.907Z,99.90
2023-05-05T21:58:44.031Z,55.80
2023-05-05T22:03:50.915Z,99.90
2023-05-05T22:08:57.354Z,99.90
2023-05-05T22:14:04.063Z,99.90
2023-05-05T22:19:09.736Z,99.90
2023-05-05T22:24:15.725Z,99.90
2023-05-05T22:29:21.780Z,99.90
2023-05-05T22:34:27.537Z,99.90
2023-05-05T22:39:33.981Z,99.90
2023-05-05T22:44:40.528Z,99.90
2023-05-05T22:49:47.546Z,99.90
2023-05-05T22:54:53.668Z,95.10
2023-05-05T22:59:59.461Z,99.90
2023-05-05T23:05:07.212Z,83.10
2023-05-05T23:10:13.393Z,99.90
2023-05-05T23:15:19.083Z,99.90
2023-05-05T23:20:24.773Z,99.90
2023-05-05T23:25:30.784Z,99.90
2023-05-05T23:30:37.363Z,99.90
2023-05-05T23:35:44.521Z,99.90
2023-05-05T23:40:50.054Z,99.90
2023-05-05T23:45:55.842Z,99.90
2023-05-05T23:51:02.800Z,99.90
2023-05-05T23:56:08.925Z,99.90
